Česky Dansk Deutsch English Español Suomi Français Magyar Italiano Nederlands norsk Polski Português svenska Türkçe

 

Het Weer

Gaziantep (Turkije)

19:20, 15 augustus 2016 (GMT)

NWNNE
WE
SWSSE
Home            
Gaziantep Aleppo International Airport Iskenderun Urfa Malatya / Erhac Adana / Incirlik Adana / Sakirpasa Lattakia Elazig Kayseri / Erkilet Diyarbakir Palmyra Sivas Nevsehir Deir Ezzor Kamishli Batman Erzincan Tokat Beyrouth Aeroport Ercan Damascus Int. Airport Larnaca Airport

Om een weerknop op uw website of weblog te plaatsen, copieer onderstaande code en plak die in uw pagina. In het eerste vakje staat HTML-code, in het tweede vakje UBB-code.


Add to Google

Details

Wind speed:2 bf, 6 kn, 3.1 m/s, 6.9 miles/h, 11.1 km/h
Wind direction:W, 260°
Visibility:Greater than 10000 m, 10 km, 32800 ft, 6.2 miles
Clouds:CAVOC
Temperature:28°C, 82°F
Gefühlte Temperatur:28°C, 83°F
Dew-point:18°C, 64°F
Atmospheric pressure:1010 hPa, 757.6 mmHg, 29.83 inHg, 0.997 atm
Relative humidity:54.6 %
METAR:LTAJ 151920Z 26006KT CAVOK 28/18 Q1010 NOSIG

Snelkoppelingen

Actuele weersinformatie van de hele wereld. Voeg locaties toe met het plus (+) symbool. Deze snelkoppelingen kunnen worden toegevoegd aan Google.

Lid van de Technetium groep

website free tracking
StatCounter NetStat W3C Validator

19-05-2022 05:00:55
astro.technetium.be money.technetium.be phote.technetium.be tafeltennistafel.technetium.be www.ligfiets.net